createdAt,value
2023-03-05T00:02:04.069Z,101591.59
2023-03-05T00:04:36.312Z,101590.25
2023-03-05T00:07:10.669Z,101597.34
2023-03-05T00:09:41.720Z,101592.75
2023-03-05T00:12:12.760Z,101608.44
2023-03-05T00:14:43.130Z,101607.66
2023-03-05T00:17:13.875Z,101598.25
2023-03-05T00:19:45.698Z,101604.31
2023-03-05T00:22:16.423Z,101603.00
2023-03-05T00:24:47.752Z,101607.09
2023-03-05T00:27:18.463Z,101602.88
2023-03-05T00:29:51.067Z,101599.25
2023-03-05T00:32:21.874Z,101597.44
2023-03-05T00:34:52.887Z,101607.25
2023-03-05T00:37:23.913Z,101607.69
2023-03-05T00:39:54.709Z,101609.56
2023-03-05T00:42:25.291Z,101610.75
2023-03-05T00:44:56.581Z,101617.50
2023-03-05T00:47:30.983Z,101619.53
2023-03-05T00:50:01.844Z,101624.59
2023-03-05T00:52:32.396Z,101620.03
2023-03-05T00:55:03.851Z,101613.13
2023-03-05T00:57:34.837Z,101614.97
2023-03-05T01:00:07.687Z,101612.44
2023-03-05T01:02:39.021Z,101613.81
2023-03-05T01:05:13.932Z,101605.06
2023-03-05T01:07:44.433Z,101610.94
2023-03-05T01:10:15.364Z,101622.59
2023-03-05T01:12:45.921Z,101613.22
2023-03-05T01:15:17.113Z,101612.53
2023-03-05T01:17:48.273Z,101601.94
2023-03-05T01:20:20.810Z,101616.31
2023-03-05T01:22:51.826Z,101615.19
2023-03-05T01:25:22.697Z,101598.19
2023-03-05T01:27:53.634Z,101601.56
2023-03-05T01:30:24.616Z,101608.31
2023-03-05T01:32:56.772Z,101608.66
2023-03-05T01:35:30.637Z,101606.66
2023-03-05T01:38:01.512Z,101600.78
2023-03-05T01:40:32.483Z,101599.63
2023-03-05T01:43:14.822Z,101600.16
2023-03-05T01:46:22.638Z,101598.66
2023-03-05T01:49:30.059Z,101601.00
2023-03-05T01:52:10.000Z,101605.06
2023-03-05T01:54:51.393Z,101602.03
2023-03-05T01:57:25.811Z,101599.19
2023-03-05T02:00:00.010Z,101590.56
2023-03-05T02:02:32.079Z,101587.88
2023-03-05T02:05:18.154Z,101587.34
2023-03-05T02:07:49.211Z,101585.16
2023-03-05T02:10:22.502Z,101591.72
2023-03-05T02:12:58.258Z,101587.84
2023-03-05T02:15:31.609Z,101585.50
2023-03-05T02:18:03.313Z,101572.00
2023-03-05T02:20:46.322Z,101574.84
2023-03-05T02:23:18.828Z,101575.16
2023-03-05T02:25:50.607Z,101572.44
2023-03-05T02:28:41.939Z,101568.50
2023-03-05T02:31:19.631Z,101555.66
2023-03-05T02:33:51.108Z,101564.75
2023-03-05T02:36:23.132Z,101566.44
2023-03-05T02:38:54.694Z,101553.59
2023-03-05T02:41:25.859Z,101547.00
2023-03-05T02:43:59.039Z,101547.13
2023-03-05T02:46:29.548Z,101539.53
2023-03-05T02:49:00.035Z,101530.88
2023-03-05T02:51:30.942Z,101531.19
2023-03-05T02:54:02.366Z,101527.09
2023-03-05T02:56:33.703Z,101526.38
2023-03-05T02:59:05.317Z,101510.81
2023-03-05T03:01:35.734Z,101543.28
2023-03-05T03:04:09.195Z,101514.16
2023-03-05T03:06:40.671Z,101513.59
2023-03-05T03:09:11.138Z,101500.22
2023-03-05T03:11:42.325Z,101487.81
2023-03-05T03:14:13.096Z,101497.44
2023-03-05T03:16:43.801Z,101501.75
2023-03-05T03:19:14.727Z,101475.16
2023-03-05T03:21:45.389Z,101472.09
2023-03-05T03:24:16.468Z,101461.56
2023-03-05T03:26:47.489Z,101460.38
2023-03-05T03:29:18.761Z,101452.53
2023-03-05T03:31:49.621Z,101450.97
2023-03-05T03:34:21.210Z,101448.53
2023-03-05T03:36:56.715Z,101440.88
2023-03-05T03:39:30.148Z,101431.06
2023-03-05T03:42:01.193Z,101427.91
2023-03-05T03:44:43.049Z,101423.41
2023-03-05T03:47:13.530Z,101417.63
2023-03-05T03:49:44.228Z,101412.69
2023-03-05T03:52:14.909Z,101414.81
2023-03-05T03:54:45.510Z,101404.56
2023-03-05T03:57:15.884Z,101398.19
2023-03-05T03:59:47.004Z,101396.06
2023-03-05T04:02:18.617Z,101390.25
2023-03-05T04:04:49.438Z,101385.94
2023-03-05T04:07:21.410Z,101383.72
2023-03-05T04:09:52.391Z,101370.00
2023-03-05T04:12:23.786Z,101374.00
2023-03-05T04:14:55.025Z,101358.91
2023-03-05T04:17:26.065Z,101356.47
2023-03-05T04:19:56.765Z,101351.81
2023-03-05T04:22:28.220Z,101352.41
2023-03-05T04:24:59.946Z,101350.66
2023-03-05T04:27:31.295Z,101339.31
2023-03-05T04:30:02.789Z,101337.50
2023-03-05T04:32:34.031Z,101338.22
2023-03-05T04:35:05.281Z,101334.97
2023-03-05T04:37:36.491Z,101331.69
2023-03-05T04:40:07.674Z,101323.56
2023-03-05T04:42:38.884Z,101320.19
2023-03-05T04:45:10.049Z,101314.53
2023-03-05T04:47:50.491Z,101311.16
2023-03-05T04:50:21.611Z,101304.84
2023-03-05T04:52:52.587Z,101306.28
2023-03-05T04:55:26.769Z,101298.91
2023-03-05T04:57:58.314Z,101290.53
2023-03-05T05:00:29.756Z,101285.09
2023-03-05T05:03:00.575Z,101285.88
2023-03-05T05:05:31.782Z,101277.13
2023-03-05T05:08:02.125Z,101273.75
2023-03-05T05:10:33.723Z,101264.81
2023-03-05T05:13:04.922Z,101262.09
2023-03-05T05:15:35.514Z,101256.97
2023-03-05T05:18:06.419Z,101250.25
2023-03-05T05:20:36.948Z,101241.28
2023-03-05T05:23:07.629Z,101225.78
2023-03-05T05:25:38.395Z,101228.06
2023-03-05T05:28:09.323Z,101227.19
2023-03-05T05:30:40.543Z,101227.56
2023-03-05T05:33:11.456Z,101225.88
2023-03-05T05:35:42.715Z,101224.22
2023-03-05T05:38:13.201Z,101215.66
2023-03-05T05:40:44.268Z,101207.44
2023-03-05T05:43:15.309Z,101219.88
2023-03-05T05:45:46.475Z,101210.25
2023-03-05T05:48:16.950Z,101208.41
2023-03-05T05:50:48.104Z,101201.50
2023-03-05T05:53:18.968Z,101197.69
2023-03-05T05:55:53.438Z,101204.97
2023-03-05T05:58:32.893Z,101191.50
2023-03-05T06:01:03.783Z,101193.50
2023-03-05T06:03:34.671Z,101188.97
2023-03-05T06:06:05.305Z,101186.91
2023-03-05T06:08:35.633Z,101179.69
2023-03-05T06:11:07.211Z,101181.06
2023-03-05T06:13:38.645Z,101173.81
2023-03-05T06:16:12.755Z,101172.38
2023-03-05T06:18:43.933Z,101169.63
2023-03-05T06:21:16.956Z,101172.59
2023-03-05T06:23:48.071Z,101163.84
2023-03-05T06:26:25.803Z,101152.56
2023-03-05T06:28:56.555Z,101156.34
2023-03-05T06:31:29.082Z,101142.81
2023-03-05T06:34:04.620Z,101141.56
2023-03-05T06:36:35.697Z,101147.19
2023-03-05T06:39:06.969Z,101146.34
2023-03-05T06:41:37.432Z,101145.53
2023-03-05T06:44:08.506Z,101141.31
2023-03-05T06:46:40.752Z,101140.06
2023-03-05T06:49:12.659Z,101136.28
2023-03-05T06:51:43.454Z,101129.19
2023-03-05T06:54:16.699Z,101140.56
2023-03-05T06:56:48.483Z,101127.00
2023-03-05T06:59:18.779Z,101127.22
2023-03-05T07:01:52.480Z,101128.66
2023-03-05T07:04:25.449Z,101126.06
2023-03-05T07:06:56.887Z,101130.59
2023-03-05T07:09:27.624Z,101133.25
2023-03-05T07:11:58.575Z,101130.53
2023-03-05T07:14:29.596Z,101138.41
2023-03-05T07:17:00.458Z,101136.09
2023-03-05T07:19:31.096Z,101134.38
2023-03-05T07:22:10.631Z,101138.31
2023-03-05T07:24:41.615Z,101139.56
2023-03-05T07:27:12.067Z,101140.38
2023-03-05T07:29:42.537Z,101133.63
2023-03-05T07:32:13.183Z,101139.06
2023-03-05T07:34:43.509Z,101140.47
2023-03-05T07:37:15.334Z,101137.78
2023-03-05T07:39:47.279Z,101139.66
2023-03-05T07:42:18.685Z,101141.50
2023-03-05T07:44:59.940Z,101147.97
2023-03-05T07:47:31.775Z,101144.03
2023-03-05T07:50:03.674Z,101150.28
2023-03-05T07:52:34.446Z,101145.34
2023-03-05T07:55:05.973Z,101141.59
2023-03-05T07:57:39.312Z,101148.59
2023-03-05T08:00:10.638Z,101154.66
2023-03-05T08:02:49.737Z,101148.59
2023-03-05T08:05:20.573Z,101152.34
2023-03-05T08:07:51.963Z,101168.22
2023-03-05T08:10:23.318Z,101161.13
2023-03-05T08:12:54.141Z,101166.34
2023-03-05T08:15:25.465Z,101163.19
2023-03-05T08:17:56.275Z,101166.94
2023-03-05T08:20:27.297Z,101165.63
2023-03-05T08:22:58.591Z,101161.25
2023-03-05T08:25:29.970Z,101170.88
2023-03-05T08:28:01.389Z,101169.38
2023-03-05T08:30:32.009Z,101163.97
2023-03-05T08:33:02.492Z,101178.53
2023-03-05T08:35:36.843Z,101177.72
2023-03-05T08:38:08.008Z,101185.63
2023-03-05T08:40:38.938Z,101189.38
2023-03-05T08:43:12.010Z,101187.69
2023-03-05T08:45:43.064Z,101187.06
2023-03-05T08:48:13.778Z,101195.56
2023-03-05T08:50:44.090Z,101196.41
2023-03-05T08:53:14.979Z,101203.03
2023-03-05T08:55:45.960Z,101207.81
2023-03-05T08:58:16.735Z,101221.09
2023-03-05T09:00:47.599Z,101221.72
2023-03-05T09:03:18.434Z,101223.16
2023-03-05T09:05:49.496Z,101222.50
2023-03-05T09:08:20.701Z,101213.47
2023-03-05T09:10:51.526Z,101225.72
2023-03-05T09:13:22.592Z,101229.81
2023-03-05T09:16:08.038Z,101232.25
2023-03-05T09:18:38.483Z,101238.44
2023-03-05T09:21:16.375Z,101230.03
2023-03-05T09:23:50.511Z,101237.31
2023-03-05T09:26:21.510Z,101244.06
2023-03-05T09:28:52.137Z,101253.03
2023-03-05T09:31:22.606Z,101238.09
2023-03-05T09:33:54.099Z,101242.22
2023-03-05T09:36:28.748Z,101240.31
2023-03-05T09:39:01.911Z,101234.75
2023-03-05T09:41:58.035Z,101240.91
2023-03-05T09:44:48.154Z,101239.59
2023-03-05T09:47:48.822Z,101253.28
2023-03-05T09:50:40.459Z,101254.16
2023-03-05T09:53:29.992Z,101260.28
2023-03-05T09:56:04.663Z,101260.63
2023-03-05T09:58:44.386Z,101259.31
2023-03-05T10:01:20.647Z,101272.19
2023-03-05T10:04:01.797Z,101266.69
2023-03-05T10:06:43.062Z,101269.78
2023-03-05T10:09:16.446Z,101266.59
2023-03-05T10:11:47.025Z,101269.50
2023-03-05T10:14:26.926Z,101262.78
2023-03-05T10:17:02.737Z,101268.34
2023-03-05T10:20:04.134Z,101287.63
2023-03-05T10:22:55.496Z,101282.59
2023-03-05T10:25:35.035Z,101284.19
2023-03-05T10:28:23.271Z,101278.28
2023-03-05T10:31:34.695Z,101279.44
2023-03-05T10:34:30.898Z,101290.31
2023-03-05T10:37:18.172Z,101291.47
2023-03-05T10:40:01.376Z,101301.69
2023-03-05T10:42:49.767Z,101286.78
2023-03-05T10:45:24.803Z,101296.28
2023-03-05T10:48:30.342Z,101300.50
2023-03-05T10:51:23.276Z,101302.53
2023-03-05T10:54:01.144Z,101307.44
2023-03-05T10:56:34.913Z,101304.94
2023-03-05T10:59:05.941Z,101306.78
2023-03-05T11:01:38.417Z,101312.38
2023-03-05T11:04:31.380Z,101323.44
2023-03-05T11:07:02.393Z,101321.38
2023-03-05T11:09:33.395Z,101322.41
2023-03-05T11:12:27.934Z,101337.00
2023-03-05T11:15:11.376Z,101327.72
2023-03-05T11:17:48.768Z,101322.88
2023-03-05T11:20:28.670Z,101331.66
2023-03-05T11:23:11.528Z,101336.38
2023-03-05T11:25:54.695Z,101337.41
2023-03-05T11:28:45.359Z,101343.16
2023-03-05T11:31:19.354Z,101345.34
2023-03-05T11:34:02.369Z,101350.75
2023-03-05T11:37:09.717Z,101352.75
2023-03-05T11:39:41.504Z,101359.53
2023-03-05T11:42:26.142Z,101363.44
2023-03-05T11:44:57.982Z,101365.81
2023-03-05T11:47:41.679Z,101371.88
2023-03-05T11:50:20.671Z,101371.22
2023-03-05T11:52:57.407Z,101377.13
2023-03-05T11:55:38.448Z,101378.50
2023-03-05T11:58:09.726Z,101383.06
2023-03-05T12:00:45.386Z,101392.53
2023-03-05T12:03:37.846Z,101400.59
2023-03-05T12:06:38.570Z,101400.44
2023-03-05T12:09:15.635Z,101393.50
2023-03-05T12:11:46.948Z,101402.63
2023-03-05T12:14:23.584Z,101402.28
2023-03-05T12:17:11.083Z,101401.25
2023-03-05T12:19:53.487Z,101405.66
2023-03-05T12:22:26.622Z,101410.56
2023-03-05T12:25:36.042Z,101421.84
2023-03-05T12:28:06.905Z,101423.22
2023-03-05T12:30:39.954Z,101427.94
2023-03-05T12:33:31.491Z,101430.94
2023-03-05T12:36:23.684Z,101441.75
2023-03-05T12:38:58.211Z,101439.06
2023-03-05T12:41:33.051Z,101442.44
2023-03-05T12:44:06.953Z,101449.88
2023-03-05T12:46:42.136Z,101445.13
2023-03-05T12:49:40.155Z,101449.53
2023-03-05T12:52:40.760Z,101454.22
2023-03-05T12:55:24.860Z,101456.06
2023-03-05T12:58:15.087Z,101457.94
2023-03-05T13:00:58.023Z,101455.06
2023-03-05T13:03:38.748Z,101458.78
2023-03-05T13:06:35.359Z,101458.63
2023-03-05T13:09:26.115Z,101467.88
2023-03-05T13:11:58.149Z,101469.75
2023-03-05T13:14:54.775Z,101470.78
2023-03-05T13:17:40.185Z,101477.88
2023-03-05T13:20:25.757Z,101479.88
2023-03-05T13:23:18.061Z,101486.47
2023-03-05T13:26:19.641Z,101482.25
2023-03-05T13:29:13.725Z,101485.97
2023-03-05T13:31:59.108Z,101490.03
2023-03-05T13:34:44.544Z,101496.59
2023-03-05T13:37:19.687Z,101499.47
2023-03-05T13:39:59.616Z,101491.53
2023-03-05T13:42:36.329Z,101499.47
2023-03-05T13:45:17.953Z,101501.84
2023-03-05T13:48:01.806Z,101501.50
2023-03-05T13:50:40.684Z,101502.84
2023-03-05T13:53:27.805Z,101511.81
2023-03-05T13:56:03.910Z,101511.28
2023-03-05T13:58:49.056Z,101508.44
2023-03-05T14:01:44.740Z,101512.66
2023-03-05T14:04:15.534Z,101509.78
2023-03-05T14:07:07.613Z,101511.28
2023-03-05T14:09:41.265Z,101515.34
2023-03-05T14:12:31.421Z,101518.72
2023-03-05T14:15:08.239Z,101509.94
2023-03-05T14:17:41.836Z,101521.94
2023-03-05T14:20:15.848Z,101507.94
2023-03-05T14:22:49.433Z,101507.22
2023-03-05T14:25:40.471Z,101518.00
2023-03-05T14:28:20.592Z,101521.03
2023-03-05T14:30:55.539Z,101526.09
2023-03-05T14:33:31.932Z,101522.91
2023-03-05T14:36:02.996Z,101521.72
2023-03-05T14:38:35.239Z,101527.09
2023-03-05T14:41:39.314Z,101526.09
2023-03-05T14:44:18.357Z,101526.28
2023-03-05T14:46:52.330Z,101527.44
2023-03-05T14:49:25.892Z,101524.94
2023-03-05T14:51:56.412Z,101524.06
2023-03-05T14:54:27.800Z,101523.41
2023-03-05T14:56:58.951Z,101524.72
2023-03-05T14:59:30.036Z,101520.19
2023-03-05T15:02:00.637Z,101528.44
2023-03-05T15:04:30.991Z,101536.53
2023-03-05T15:07:01.758Z,101533.16
2023-03-05T15:09:32.034Z,101533.16
2023-03-05T15:12:05.082Z,101533.66
2023-03-05T15:14:38.482Z,101530.31
2023-03-05T15:17:11.796Z,101529.44
2023-03-05T15:19:42.167Z,101531.47
2023-03-05T15:22:14.142Z,101527.06
2023-03-05T15:24:45.405Z,101528.09
2023-03-05T15:27:15.945Z,101525.38
2023-03-05T15:29:46.408Z,101526.41
2023-03-05T15:32:17.211Z,101529.09
2023-03-05T15:34:50.422Z,101527.91
2023-03-05T15:37:20.941Z,101525.22
2023-03-05T15:39:54.432Z,101529.78
2023-03-05T15:42:24.969Z,101525.72
2023-03-05T15:44:55.417Z,101524.72
2023-03-05T15:47:26.392Z,101522.03
2023-03-05T15:49:57.158Z,101524.00
2023-03-05T15:52:27.849Z,101530.56
2023-03-05T15:54:58.604Z,101528.72
2023-03-05T15:57:29.650Z,101525.50
2023-03-05T16:00:00.564Z,101532.06
2023-03-05T16:02:31.494Z,101533.38
2023-03-05T16:05:02.075Z,101529.19
2023-03-05T16:07:35.012Z,101535.91
2023-03-05T16:10:06.796Z,101533.72
2023-03-05T16:12:41.856Z,101533.72
2023-03-05T16:15:14.742Z,101544.81
2023-03-05T16:17:47.431Z,101537.06
2023-03-05T16:20:18.192Z,101538.38
2023-03-05T16:22:49.131Z,101533.31
2023-03-05T16:25:19.627Z,101533.63
2023-03-05T16:27:50.650Z,101532.28
2023-03-05T16:30:21.698Z,101526.66
2023-03-05T16:32:53.599Z,101529.00
2023-03-05T16:35:26.192Z,101521.06
2023-03-05T16:37:56.950Z,101524.78
2023-03-05T16:40:38.834Z,101521.72
2023-03-05T16:43:18.240Z,101512.94
2023-03-05T16:45:48.613Z,101514.97
2023-03-05T16:48:19.197Z,101515.97
2023-03-05T16:50:53.137Z,101510.75
2023-03-05T16:53:24.029Z,101499.44
2023-03-05T16:55:54.862Z,101499.75
2023-03-05T16:58:25.999Z,101497.75
2023-03-05T17:00:56.384Z,101500.44
2023-03-05T17:03:28.761Z,101489.16
2023-03-05T17:05:59.345Z,101497.25
2023-03-05T17:08:30.230Z,101488.63
2023-03-05T17:11:00.599Z,101482.72
2023-03-05T17:13:31.006Z,101486.25
2023-03-05T17:16:01.617Z,101476.84
2023-03-05T17:18:32.429Z,101473.34
2023-03-05T17:21:03.889Z,101477.19
2023-03-05T17:23:36.238Z,101467.59
2023-03-05T17:26:15.054Z,101473.81
2023-03-05T17:28:46.317Z,101463.34
2023-03-05T17:31:17.573Z,101468.53
2023-03-05T17:33:48.426Z,101460.28
2023-03-05T17:36:22.777Z,101460.63
2023-03-05T17:38:55.027Z,101455.56
2023-03-05T17:41:26.301Z,101459.56
2023-03-05T17:43:56.795Z,101460.56
2023-03-05T17:46:27.777Z,101454.19
2023-03-05T17:48:58.014Z,101455.03
2023-03-05T17:51:28.806Z,101452.81
2023-03-05T17:53:59.720Z,101454.50
2023-03-05T17:56:33.922Z,101446.59
2023-03-05T17:59:04.487Z,101445.75
2023-03-05T18:01:35.839Z,101447.44
2023-03-05T18:04:06.635Z,101441.69
2023-03-05T18:06:38.006Z,101437.16
2023-03-05T18:09:11.022Z,101443.66
2023-03-05T18:11:41.508Z,101444.50
2023-03-05T18:14:12.363Z,101442.66
2023-03-05T18:16:43.068Z,101434.22
2023-03-05T18:19:13.711Z,101442.97
2023-03-05T18:21:44.472Z,101432.19
2023-03-05T18:24:16.335Z,101434.22
2023-03-05T18:26:47.107Z,101437.06
2023-03-05T18:29:18.800Z,101433.53
2023-03-05T18:31:52.223Z,101426.31
2023-03-05T18:34:22.736Z,101422.94
2023-03-05T18:36:55.364Z,101429.63
2023-03-05T18:39:26.050Z,101431.50
2023-03-05T18:41:57.449Z,101424.44
2023-03-05T18:44:28.657Z,101429.13
2023-03-05T18:46:59.112Z,101424.75
2023-03-05T18:49:30.561Z,101423.56
2023-03-05T18:52:05.400Z,101434.81
2023-03-05T18:54:36.026Z,101420.38
2023-03-05T18:57:06.543Z,101423.38
2023-03-05T18:59:37.318Z,101417.63
2023-03-05T19:02:15.223Z,101418.31
2023-03-05T19:04:46.354Z,101410.69
2023-03-05T19:07:16.687Z,101416.06
2023-03-05T19:09:54.546Z,101407.88
2023-03-05T19:12:36.034Z,101412.69
2023-03-05T19:15:07.469Z,101407.19
2023-03-05T19:17:38.584Z,101403.44
2023-03-05T19:20:12.248Z,101403.13
2023-03-05T19:22:42.944Z,101400.56
2023-03-05T19:25:14.257Z,101408.63
2023-03-05T19:27:45.032Z,101408.50
2023-03-05T19:30:17.259Z,101404.44
2023-03-05T19:32:50.707Z,101409.13
2023-03-05T19:35:21.539Z,101409.13
2023-03-05T19:37:52.235Z,101404.06
2023-03-05T19:40:22.897Z,101407.88
2023-03-05T19:42:53.437Z,101409.75
2023-03-05T19:45:24.332Z,101411.13
2023-03-05T19:47:54.943Z,101402.38
2023-03-05T19:50:25.484Z,101412.44
2023-03-05T19:52:56.394Z,101414.44
2023-03-05T19:55:27.018Z,101415.13
2023-03-05T19:57:57.322Z,101416.25
2023-03-05T20:00:28.683Z,101417.94
2023-03-05T20:03:00.964Z,101415.44
2023-03-05T20:05:34.426Z,101417.75
2023-03-05T20:08:05.032Z,101420.84
2023-03-05T20:10:35.945Z,101425.13
2023-03-05T20:13:08.820Z,101418.16
2023-03-05T20:15:39.956Z,101424.25
2023-03-05T20:18:10.787Z,101427.09
2023-03-05T20:20:44.579Z,101426.41
2023-03-05T20:23:14.938Z,101431.59
2023-03-05T20:25:45.278Z,101430.78
2023-03-05T20:28:16.744Z,101438.84
2023-03-05T20:30:47.141Z,101444.53
2023-03-05T20:33:17.578Z,101440.16
2023-03-05T20:35:48.113Z,101446.34
2023-03-05T20:38:25.964Z,101449.22
2023-03-05T20:41:00.814Z,101447.84
2023-03-05T20:43:34.591Z,101448.84
2023-03-05T20:46:06.023Z,101452.66
2023-03-05T20:48:36.662Z,101453.50
2023-03-05T20:51:19.534Z,101464.25
2023-03-05T20:54:13.973Z,101457.03
2023-03-05T20:56:44.845Z,101459.38
2023-03-05T20:59:15.544Z,101454.44
2023-03-05T21:01:46.007Z,101456.13
2023-03-05T21:04:17.380Z,101456.28
2023-03-05T21:06:47.806Z,101457.28
2023-03-05T21:09:18.264Z,101461.97
2023-03-05T21:11:48.805Z,101459.59
2023-03-05T21:14:19.696Z,101466.09
2023-03-05T21:16:50.386Z,101460.72
2023-03-05T21:19:20.853Z,101453.81
2023-03-05T21:21:51.763Z,101460.19
2023-03-05T21:24:24.377Z,101475.75
2023-03-05T21:26:55.474Z,101470.69
2023-03-05T21:29:26.690Z,101465.88
2023-03-05T21:31:57.523Z,101472.06
2023-03-05T21:34:28.071Z,101476.63
2023-03-05T21:36:58.673Z,101484.81
2023-03-05T21:39:29.192Z,101476.91
2023-03-05T21:42:00.518Z,101484.97
2023-03-05T21:44:31.665Z,101492.19
2023-03-05T21:47:02.201Z,101493.34
2023-03-05T21:49:32.566Z,101489.66
2023-03-05T21:52:13.114Z,101491.66
2023-03-05T21:54:44.136Z,101497.84
2023-03-05T21:57:14.756Z,101504.22
2023-03-05T21:59:45.674Z,101499.84
2023-03-05T22:02:19.894Z,101499.31
2023-03-05T22:04:50.912Z,101505.50
2023-03-05T22:07:21.666Z,101507.81
2023-03-05T22:09:56.626Z,101514.16
2023-03-05T22:12:44.328Z,101514.88
2023-03-05T22:15:14.768Z,101516.84
2023-03-05T22:17:45.512Z,101519.84
2023-03-05T22:20:17.035Z,101522.41
2023-03-05T22:22:48.079Z,101524.47
2023-03-05T22:25:19.113Z,101526.47
2023-03-05T22:27:49.437Z,101523.78
2023-03-05T22:30:20.054Z,101531.00
2023-03-05T22:32:50.378Z,101521.09
2023-03-05T22:35:20.881Z,101536.38
2023-03-05T22:37:51.505Z,101532.13
2023-03-05T22:40:23.838Z,101544.56
2023-03-05T22:42:54.919Z,101546.56
2023-03-05T22:45:25.753Z,101551.94
2023-03-05T22:47:56.563Z,101555.59
2023-03-05T22:50:26.827Z,101549.94
2023-03-05T22:52:57.563Z,101567.88
2023-03-05T22:55:28.192Z,101562.38
2023-03-05T22:57:59.251Z,101559.25
2023-03-05T23:00:30.129Z,101573.38
2023-03-05T23:03:00.828Z,101560.63
2023-03-05T23:05:32.050Z,101567.69
2023-03-05T23:08:02.841Z,101569.97
2023-03-05T23:10:36.322Z,101579.00
2023-03-05T23:13:07.327Z,101573.34
2023-03-05T23:15:40.110Z,101579.53
2023-03-05T23:18:11.031Z,101589.59
2023-03-05T23:20:43.582Z,101584.63
2023-03-05T23:23:14.472Z,101584.63
2023-03-05T23:25:45.188Z,101591.84
2023-03-05T23:28:15.507Z,101598.81
2023-03-05T23:30:48.623Z,101597.34
2023-03-05T23:33:22.469Z,101594.84
2023-03-05T23:35:57.038Z,101599.16
2023-03-05T23:38:29.718Z,101601.25
2023-03-05T23:41:01.946Z,101602.34
2023-03-05T23:43:32.410Z,101590.97
2023-03-05T23:46:03.085Z,101606.81
2023-03-05T23:48:33.642Z,101599.13
2023-03-05T23:51:08.556Z,101607.94
2023-03-05T23:53:40.481Z,101608.47
2023-03-05T23:56:12.894Z,101604.47
2023-03-05T23:58:44.223Z,101612.25
